createdAt,value
2019-03-15T00:28:26.690Z,94.32
2019-03-15T00:28:27.263Z,94.46
2019-03-15T00:28:27.863Z,94.46
2019-03-15T00:28:28.464Z,94.51
2019-03-15T00:28:29.067Z,94.32
2019-03-15T00:28:29.661Z,94.46
2019-03-15T00:28:30.263Z,94.18
2019-03-15T00:28:30.862Z,94.37
2019-03-15T00:29:24.345Z,94.08
2019-03-15T00:29:24.917Z,94.13
2019-03-15T00:29:25.537Z,94.42
2019-03-15T00:29:26.115Z,94.23
2019-03-15T00:29:26.722Z,94.23
2019-03-15T00:29:27.316Z,94.32
2019-03-15T00:29:27.918Z,94.42
2019-03-15T00:29:28.517Z,94.42
2019-03-15T00:30:22.505Z,94.70
2019-03-15T00:30:23.082Z,94.70
2019-03-15T00:30:23.679Z,94.70
2019-03-15T00:30:24.300Z,94.70
2019-03-15T00:30:24.880Z,94.70
2019-03-15T00:30:25.481Z,94.70
2019-03-15T00:30:26.080Z,94.70
2019-03-15T00:31:19.547Z,94.37
2019-03-15T00:31:20.117Z,94.89
2019-03-15T00:31:20.717Z,94.42
2019-03-15T00:31:21.335Z,95.51
2019-03-15T00:31:21.920Z,95.36
2019-03-15T00:31:22.518Z,95.75
2019-03-15T00:31:23.121Z,95.70
2019-03-15T00:31:23.725Z,95.27
2019-03-15T00:32:17.196Z,95.41
2019-03-15T00:32:17.770Z,95.41
2019-03-15T00:32:18.369Z,95.41
2019-03-15T00:32:18.970Z,95.46
2019-03-15T00:32:19.568Z,95.46
2019-03-15T00:32:20.170Z,95.46
2019-03-15T00:32:20.769Z,95.46
2019-03-15T00:32:21.371Z,95.46
2019-03-15T00:33:14.847Z,94.89
2019-03-15T00:33:15.423Z,94.79
2019-03-15T00:33:16.026Z,94.79
2019-03-15T00:33:16.622Z,94.79
2019-03-15T00:33:17.222Z,94.89
2019-03-15T00:33:17.821Z,94.60
2019-03-15T00:33:18.420Z,94.79
2019-03-15T00:33:19.023Z,94.60
2019-03-15T00:34:13.522Z,95.17
2019-03-15T00:34:14.097Z,95.17
2019-03-15T00:34:14.697Z,95.27
2019-03-15T00:34:15.465Z,95.55
2019-03-15T00:34:16.651Z,95.27
2019-03-15T00:34:16.727Z,95.55
2019-03-15T00:34:17.097Z,94.98
2019-03-15T00:34:17.696Z,95.55
2019-03-15T00:35:12.199Z,95.17
2019-03-15T00:35:12.773Z,95.46
2019-03-15T00:35:13.373Z,95.36
2019-03-15T00:35:13.973Z,95.46
2019-03-15T00:35:14.572Z,95.27
2019-03-15T00:35:15.174Z,95.46
2019-03-15T00:35:15.771Z,95.36
2019-03-15T00:35:16.375Z,95.46
2019-03-15T00:36:10.875Z,94.89
2019-03-15T00:36:11.449Z,94.98
2019-03-15T00:36:12.050Z,94.89
2019-03-15T00:36:12.648Z,94.56
2019-03-15T00:36:13.251Z,95.17
2019-03-15T00:36:13.849Z,94.70
2019-03-15T00:36:14.448Z,95.17
2019-03-15T00:36:15.049Z,94.89
2019-03-15T00:37:08.530Z,94.98
2019-03-15T00:37:09.102Z,95.46
2019-03-15T00:37:09.702Z,95.17
2019-03-15T00:37:10.301Z,95.46
2019-03-15T00:37:10.941Z,95.08
2019-03-15T00:37:11.502Z,95.46
2019-03-15T00:37:12.101Z,95.17
2019-03-15T00:37:12.702Z,94.89
2019-03-15T00:38:07.202Z,95.84
2019-03-15T00:38:07.778Z,96.12
2019-03-15T00:38:08.376Z,95.84
2019-03-15T00:38:08.977Z,95.84
2019-03-15T00:38:09.577Z,95.84
2019-03-15T00:38:10.182Z,95.75
2019-03-15T00:38:10.777Z,95.75
2019-03-15T00:38:11.375Z,95.84
2019-03-15T00:39:05.878Z,96.60
2019-03-15T00:39:06.452Z,96.60
2019-03-15T00:39:07.052Z,96.60
2019-03-15T00:39:07.652Z,96.69
2019-03-15T00:39:08.255Z,96.88
2019-03-15T00:39:08.854Z,96.88
2019-03-15T00:39:09.452Z,96.69
2019-03-15T00:39:10.053Z,96.88
2019-03-15T00:40:04.556Z,97.17
2019-03-15T00:40:05.128Z,97.27
2019-03-15T00:40:05.733Z,97.17
2019-03-15T00:40:06.328Z,97.27
2019-03-15T00:40:06.930Z,97.17
2019-03-15T00:40:07.528Z,97.27
2019-03-15T00:40:08.130Z,97.17
2019-03-15T00:40:08.727Z,97.27
2019-03-15T00:41:03.230Z,97.64
2019-03-15T00:41:03.804Z,97.64
2019-03-15T00:41:04.404Z,97.45
2019-03-15T00:41:05.005Z,97.45
2019-03-15T00:41:05.603Z,97.55
2019-03-15T00:41:06.207Z,97.55
2019-03-15T00:41:06.805Z,97.74
2019-03-15T00:41:07.404Z,97.64
2019-03-15T00:42:01.909Z,97.83
2019-03-15T00:42:02.480Z,97.64
2019-03-15T00:42:03.079Z,97.74
2019-03-15T00:42:03.680Z,97.83
2019-03-15T00:42:04.281Z,97.45
2019-03-15T00:42:04.882Z,97.83
2019-03-15T00:42:05.479Z,97.83
2019-03-15T00:42:06.080Z,97.45
2019-03-15T00:42:59.559Z,97.55
2019-03-15T00:43:00.134Z,97.36
2019-03-15T00:43:00.752Z,97.45
2019-03-15T00:43:01.333Z,97.36
2019-03-15T00:43:01.932Z,97.27
2019-03-15T00:43:02.532Z,97.64
2019-03-15T00:43:03.133Z,97.55
2019-03-15T00:43:03.732Z,97.55
2019-03-15T00:43:58.235Z,96.98
2019-03-15T00:43:58.809Z,97.07
2019-03-15T00:43:59.408Z,97.07
2019-03-15T00:44:00.008Z,97.17
2019-03-15T00:44:00.609Z,96.98
2019-03-15T00:44:01.211Z,97.17
2019-03-15T00:44:01.806Z,96.98
2019-03-15T00:44:02.408Z,96.98
2019-03-15T00:44:55.885Z,96.98
2019-03-15T00:44:56.461Z,96.69
2019-03-15T00:44:57.061Z,96.69
2019-03-15T00:44:57.660Z,96.79
2019-03-15T00:44:58.259Z,96.98
2019-03-15T00:44:58.860Z,96.98
2019-03-15T00:44:59.463Z,96.98
2019-03-15T00:45:00.061Z,97.55
2019-03-15T00:45:54.562Z,98.31
2019-03-15T00:45:55.138Z,98.21
2019-03-15T00:45:55.736Z,98.50
2019-03-15T00:45:56.337Z,98.50
2019-03-15T00:45:56.937Z,98.21
2019-03-15T00:45:57.539Z,97.83
2019-03-15T00:45:58.142Z,98.02
2019-03-15T00:45:58.904Z,98.79
2019-03-15T00:46:53.237Z,98.69
2019-03-15T00:46:53.811Z,98.59
2019-03-15T00:46:54.411Z,98.69
2019-03-15T00:46:55.012Z,98.69
2019-03-15T00:46:55.610Z,98.50
2019-03-15T00:46:56.215Z,98.69
2019-03-15T00:46:56.810Z,98.69
2019-03-15T00:46:57.417Z,98.69
2019-03-15T00:47:50.893Z,99.16
2019-03-15T00:47:51.467Z,99.44
2019-03-15T00:47:52.064Z,99.07
2019-03-15T00:47:52.663Z,99.35
2019-03-15T00:47:53.265Z,99.35
2019-03-15T00:47:53.870Z,99.54
2019-03-15T00:47:54.466Z,99.92
2019-03-15T00:47:55.062Z,99.92
2019-03-15T00:48:49.565Z,99.73
2019-03-15T00:48:50.141Z,99.73
2019-03-15T00:48:50.740Z,99.73
2019-03-15T00:48:51.339Z,99.92
2019-03-15T00:48:51.941Z,99.73
2019-03-15T00:48:52.543Z,99.73
2019-03-15T00:48:53.139Z,99.64
2019-03-15T00:48:53.896Z,99.64
2019-03-15T00:49:47.296Z,99.99
2019-03-15T00:49:47.791Z,99.99
2019-03-15T00:49:48.394Z,99.73
2019-03-15T00:49:48.992Z,99.99
2019-03-15T00:49:49.592Z,99.83
2019-03-15T00:49:50.197Z,99.99
2019-03-15T00:49:50.790Z,99.99
2019-03-15T00:49:51.391Z,99.99
2019-03-15T00:50:44.868Z,99.54
2019-03-15T00:50:45.443Z,99.54
2019-03-15T00:50:46.044Z,99.35
2019-03-15T00:50:46.649Z,99.44
2019-03-15T00:50:47.242Z,99.44
2019-03-15T00:50:47.844Z,99.44
2019-03-15T00:50:48.444Z,99.44
2019-03-15T00:50:49.044Z,99.54
2019-03-15T00:51:42.520Z,98.79
2019-03-15T00:51:43.098Z,98.88
2019-03-15T00:51:43.695Z,99.07
2019-03-15T00:51:44.296Z,99.16
2019-03-15T00:51:44.905Z,99.16
2019-03-15T00:51:45.497Z,99.07
2019-03-15T00:51:46.093Z,98.79
2019-03-15T00:51:46.696Z,99.07
2019-03-15T00:52:41.197Z,98.21
2019-03-15T00:52:41.770Z,98.02
2019-03-15T00:52:42.371Z,98.02
2019-03-15T00:52:42.969Z,98.02
2019-03-15T00:52:43.570Z,98.02
2019-03-15T00:52:44.169Z,98.31
2019-03-15T00:52:44.769Z,98.40
2019-03-15T00:52:45.369Z,98.40
2019-03-15T00:53:38.848Z,98.88
2019-03-15T00:53:39.421Z,97.92
2019-03-15T00:53:40.022Z,98.12
2019-03-15T00:53:40.622Z,98.97
2019-03-15T00:53:41.221Z,98.12
2019-03-15T00:53:41.821Z,97.92
2019-03-15T00:53:42.422Z,98.12
2019-03-15T00:53:43.021Z,97.92
2019-03-15T00:54:36.499Z,98.50
2019-03-15T00:54:37.075Z,98.40
2019-03-15T00:54:37.673Z,98.40
2019-03-15T00:54:38.274Z,98.50
2019-03-15T00:54:38.874Z,98.50
2019-03-15T00:54:39.479Z,98.40
2019-03-15T00:54:40.073Z,98.79
2019-03-15T00:54:40.674Z,98.31
2019-03-15T00:55:35.176Z,98.31
2019-03-15T00:55:35.748Z,98.31
2019-03-15T00:55:36.349Z,98.79
2019-03-15T00:55:36.948Z,98.59
2019-03-15T00:55:37.551Z,98.59
2019-03-15T00:55:38.148Z,98.31
2019-03-15T00:55:38.747Z,98.69
2019-03-15T00:55:39.350Z,98.59
2019-03-15T00:56:32.826Z,98.59
2019-03-15T00:56:33.402Z,98.59
2019-03-15T00:56:34.001Z,98.59
2019-03-15T00:56:34.605Z,98.59
2019-03-15T00:56:35.216Z,98.31
2019-03-15T00:56:35.800Z,98.31
2019-03-15T00:56:36.402Z,98.31
2019-03-15T00:56:37.000Z,98.31
2019-03-15T00:57:30.479Z,99.26
2019-03-15T00:57:31.054Z,99.07
2019-03-15T00:57:31.656Z,99.16
2019-03-15T00:57:32.253Z,99.07
2019-03-15T00:57:32.853Z,99.07
2019-03-15T00:57:33.460Z,99.16
2019-03-15T00:57:34.053Z,99.16
2019-03-15T00:57:34.652Z,99.16
2019-03-15T00:58:28.132Z,99.64
2019-03-15T00:58:28.706Z,99.44
2019-03-15T00:58:29.305Z,99.44
2019-03-15T00:58:29.905Z,99.16
2019-03-15T00:58:30.506Z,99.35
2019-03-15T00:58:31.108Z,99.64
2019-03-15T00:58:31.705Z,99.73
2019-03-15T00:58:32.306Z,99.73
2019-03-15T00:59:25.783Z,99.99
2019-03-15T00:59:26.357Z,99.99
2019-03-15T00:59:26.956Z,99.99
2019-03-15T00:59:27.599Z,99.99
2019-03-15T00:59:28.166Z,99.99
2019-03-15T00:59:28.763Z,99.99
2019-03-15T00:59:29.355Z,99.99
2019-03-15T00:59:29.956Z,99.99
2019-03-15T01:00:23.435Z,99.99
2019-03-15T01:00:24.008Z,99.99
2019-03-15T01:00:24.608Z,99.99
2019-03-15T01:00:25.207Z,99.99
2019-03-15T01:00:25.807Z,99.99
2019-03-15T01:00:26.410Z,99.99
2019-03-15T01:00:27.009Z,99.99
2019-03-15T01:00:27.608Z,99.99
2019-03-15T01:01:21.087Z,99.99
2019-03-15T01:01:21.659Z,99.99
2019-03-15T01:01:22.260Z,99.99
2019-03-15T01:01:22.860Z,99.99
2019-03-15T01:01:23.460Z,99.99
2019-03-15T01:01:24.063Z,99.99
2019-03-15T01:01:24.658Z,99.99
2019-03-15T01:01:25.260Z,99.99
2019-03-15T01:02:18.738Z,99.99
2019-03-15T01:02:19.315Z,99.99
2019-03-15T01:02:19.912Z,99.99
2019-03-15T01:02:20.511Z,99.99
2019-03-15T01:02:21.112Z,99.99
2019-03-15T01:02:21.715Z,99.99
2019-03-15T01:02:22.310Z,99.99
2019-03-15T01:02:22.915Z,99.99
2019-03-15T01:03:16.389Z,99.99
2019-03-15T01:03:16.964Z,99.99
2019-03-15T01:03:17.564Z,99.99
2019-03-15T01:03:18.163Z,99.99
2019-03-15T01:03:18.763Z,99.99
2019-03-15T01:03:19.363Z,99.99
2019-03-15T01:03:19.964Z,99.99
2019-03-15T01:03:20.563Z,99.99
2019-03-15T01:04:14.041Z,99.99
2019-03-15T01:04:14.615Z,99.99
2019-03-15T01:04:15.214Z,99.99
2019-03-15T01:04:15.814Z,99.99
2019-03-15T01:04:16.415Z,99.99
2019-03-15T01:04:17.018Z,99.99
2019-03-15T01:04:17.615Z,99.99
2019-03-15T01:04:18.214Z,99.99
2019-03-15T01:05:12.718Z,99.99
2019-03-15T01:05:13.291Z,99.99
2019-03-15T01:05:13.890Z,99.99
2019-03-15T01:05:14.490Z,99.99
2019-03-15T01:05:15.089Z,99.99
2019-03-15T01:05:15.690Z,99.99
2019-03-15T01:05:16.289Z,99.99
2019-03-15T01:05:16.890Z,99.99
2019-03-15T01:06:10.368Z,99.99
2019-03-15T01:06:10.945Z,99.99
2019-03-15T01:06:11.543Z,99.99
2019-03-15T01:06:12.149Z,99.99
2019-03-15T01:06:12.741Z,99.99
2019-03-15T01:06:13.342Z,99.99
2019-03-15T01:06:13.940Z,99.99
2019-03-15T01:06:14.539Z,99.99
2019-03-15T01:07:09.047Z,99.99
2019-03-15T01:07:09.617Z,99.99
2019-03-15T01:07:10.218Z,99.99
2019-03-15T01:07:10.816Z,99.99
2019-03-15T01:07:11.418Z,99.99
2019-03-15T01:07:12.017Z,99.99
2019-03-15T01:07:12.616Z,99.99
2019-03-15T01:07:13.216Z,99.99
2019-03-15T01:08:07.719Z,99.99
2019-03-15T01:08:08.293Z,99.99
2019-03-15T01:08:08.895Z,99.99
2019-03-15T01:08:09.493Z,99.99
2019-03-15T01:08:10.119Z,99.99
2019-03-15T01:08:11.474Z,99.99
2019-03-15T01:08:11.532Z,99.99
2019-03-15T01:08:11.893Z,99.99
2019-03-15T01:09:05.375Z,99.99
2019-03-15T01:09:05.946Z,99.99
2019-03-15T01:09:06.548Z,99.99
2019-03-15T01:09:07.146Z,99.99
2019-03-15T01:09:07.745Z,99.99
2019-03-15T01:09:08.345Z,99.99
2019-03-15T01:09:08.944Z,99.99
2019-03-15T01:09:09.544Z,99.99
2019-03-15T01:10:03.025Z,99.99
2019-03-15T01:10:03.598Z,99.99
2019-03-15T01:10:04.199Z,99.99
2019-03-15T01:10:04.797Z,99.99
2019-03-15T01:10:05.397Z,99.99
2019-03-15T01:10:05.996Z,99.99
2019-03-15T01:10:06.596Z,99.99
2019-03-15T01:10:07.196Z,99.99
2019-03-15T01:11:01.703Z,99.99
2019-03-15T01:11:02.272Z,99.99
2019-03-15T01:11:02.872Z,99.99
2019-03-15T01:11:03.472Z,99.99
2019-03-15T01:11:04.071Z,99.99
2019-03-15T01:11:04.671Z,99.99
2019-03-15T01:11:05.272Z,99.99
2019-03-15T01:11:05.872Z,99.99
2019-03-15T01:11:59.351Z,99.99
2019-03-15T01:11:59.927Z,99.99
2019-03-15T01:12:00.526Z,99.99
2019-03-15T01:12:01.125Z,99.99
2019-03-15T01:12:01.725Z,99.99
2019-03-15T01:12:02.326Z,99.99
2019-03-15T01:12:02.925Z,99.99
2019-03-15T01:12:03.524Z,99.99
2019-03-15T01:12:57.006Z,99.99
2019-03-15T01:12:57.579Z,99.99
2019-03-15T01:12:58.179Z,99.99
2019-03-15T01:12:58.783Z,99.99
2019-03-15T01:12:59.377Z,99.99
2019-03-15T01:12:59.976Z,99.99
2019-03-15T01:13:00.576Z,99.99
2019-03-15T01:13:01.176Z,99.99
2019-03-15T01:13:54.653Z,99.99
2019-03-15T01:13:55.231Z,99.99
2019-03-15T01:13:55.840Z,99.99
2019-03-15T01:13:56.427Z,99.99
2019-03-15T01:13:57.030Z,99.99
2019-03-15T01:13:57.627Z,99.99
2019-03-15T01:13:58.226Z,99.99
2019-03-15T01:13:58.826Z,99.99
2019-03-15T01:14:52.305Z,99.99
2019-03-15T01:14:52.880Z,99.99
2019-03-15T01:14:53.479Z,99.99
2019-03-15T01:14:54.180Z,99.99
2019-03-15T01:14:54.680Z,99.99
2019-03-15T01:14:55.279Z,99.99
2019-03-15T01:14:55.881Z,99.99
2019-03-15T01:14:56.479Z,99.99
2019-03-15T01:15:50.982Z,99.99
2019-03-15T01:15:51.556Z,99.99
2019-03-15T01:15:52.154Z,99.99
2019-03-15T01:15:52.754Z,99.99
2019-03-15T01:15:53.355Z,99.99
2019-03-15T01:15:53.953Z,99.99
2019-03-15T01:15:54.555Z,99.99
2019-03-15T01:15:55.154Z,99.99
2019-03-15T01:16:49.657Z,99.99
2019-03-15T01:16:50.233Z,99.99
2019-03-15T01:16:50.830Z,99.99
2019-03-15T01:16:51.431Z,99.99
2019-03-15T01:16:52.030Z,99.99
2019-03-15T01:16:52.629Z,99.99
2019-03-15T01:16:53.229Z,99.99
2019-03-15T01:16:53.831Z,99.99
2019-03-15T01:17:48.333Z,99.99
2019-03-15T01:17:48.907Z,99.99
2019-03-15T01:17:49.507Z,99.99
2019-03-15T01:17:50.107Z,99.99
2019-03-15T01:17:50.708Z,99.99
2019-03-15T01:17:51.306Z,99.99
2019-03-15T01:17:52.606Z,99.99
2019-03-15T01:17:52.673Z,99.99
2019-03-15T01:18:47.009Z,99.99
2019-03-15T01:18:47.583Z,99.99
2019-03-15T01:18:48.182Z,99.99
2019-03-15T01:18:48.781Z,99.99
2019-03-15T01:18:49.383Z,99.99
2019-03-15T01:18:50.002Z,99.99
2019-03-15T01:18:50.582Z,99.99
2019-03-15T01:18:51.184Z,99.99
2019-03-15T01:19:44.659Z,99.99
2019-03-15T01:19:45.236Z,99.99
2019-03-15T01:19:45.834Z,99.99
2019-03-15T01:19:46.435Z,99.99
2019-03-15T01:19:47.035Z,99.99
2019-03-15T01:19:47.634Z,99.99
2019-03-15T01:19:48.239Z,99.99
2019-03-15T01:19:48.843Z,99.99
2019-03-15T01:20:42.312Z,99.99
2019-03-15T01:20:42.886Z,99.99
2019-03-15T01:20:43.488Z,99.99
2019-03-15T01:20:44.086Z,99.99
2019-03-15T01:20:44.686Z,99.99
2019-03-15T01:20:45.286Z,99.99
2019-03-15T01:20:45.886Z,99.99
2019-03-15T01:20:46.487Z,99.99
2019-03-15T01:21:40.007Z,99.99
2019-03-15T01:21:40.537Z,99.99
2019-03-15T01:21:41.136Z,99.99
2019-03-15T01:21:41.737Z,99.99
2019-03-15T01:21:42.338Z,99.99
2019-03-15T01:21:42.937Z,99.99
2019-03-15T01:21:43.537Z,99.99
2019-03-15T01:21:44.200Z,99.99
2019-03-15T01:22:37.617Z,99.99
2019-03-15T01:22:38.191Z,99.99
2019-03-15T01:22:38.791Z,99.99
2019-03-15T01:22:39.390Z,99.99
2019-03-15T01:22:39.990Z,99.99
2019-03-15T01:22:40.595Z,99.99
2019-03-15T01:22:41.188Z,99.99
2019-03-15T01:22:41.789Z,99.99
2019-03-15T01:23:36.289Z,99.99
2019-03-15T01:23:36.866Z,99.99
2019-03-15T01:23:37.465Z,99.99
2019-03-15T01:23:38.066Z,99.99
2019-03-15T01:23:38.665Z,99.99
2019-03-15T01:23:39.265Z,99.99
2019-03-15T01:23:39.865Z,99.99
2019-03-15T01:23:40.468Z,99.99
2019-03-15T01:24:33.943Z,99.99
2019-03-15T01:24:34.519Z,99.99
2019-03-15T01:24:35.117Z,99.99
2019-03-15T01:24:35.717Z,99.99
2019-03-15T01:24:36.318Z,99.99
2019-03-15T01:24:36.918Z,99.99
2019-03-15T01:24:37.516Z,99.99
2019-03-15T01:24:38.119Z,99.99
2019-03-15T01:25:32.620Z,99.99
2019-03-15T01:25:33.192Z,99.99
2019-03-15T01:25:33.792Z,99.99
2019-03-15T01:25:34.394Z,99.99
2019-03-15T01:25:34.992Z,99.99
2019-03-15T01:25:35.593Z,99.99
2019-03-15T01:25:36.193Z,99.99
2019-03-15T01:25:36.792Z,99.99
2019-03-15T01:26:30.270Z,99.99
2019-03-15T01:26:30.845Z,99.99
2019-03-15T01:26:31.445Z,99.99
2019-03-15T01:26:32.044Z,99.99
2019-03-15T01:26:32.644Z,99.99
2019-03-15T01:26:33.243Z,99.99
2019-03-15T01:26:33.845Z,99.99
2019-03-15T01:26:34.444Z,99.99
2019-03-15T01:27:28.949Z,99.99
2019-03-15T01:27:29.520Z,99.99
2019-03-15T01:27:30.119Z,99.99
2019-03-15T01:27:30.721Z,99.99
2019-03-15T01:27:31.320Z,99.99
2019-03-15T01:27:31.920Z,99.99
2019-03-15T01:27:32.663Z,99.99
2019-03-15T01:27:33.119Z,99.99
2019-03-15T01:28:27.621Z,99.99
2019-03-15T01:28:28.196Z,99.99
2019-03-15T01:28:28.795Z,99.99
2019-03-15T01:28:29.394Z,99.99
2019-03-15T01:28:29.994Z,99.99
2019-03-15T01:28:30.595Z,99.99
2019-03-15T01:28:31.195Z,99.99
2019-03-15T01:28:31.795Z,99.99
2019-03-15T01:29:26.296Z,99.99
2019-03-15T01:29:26.872Z,99.99
2019-03-15T01:29:27.471Z,99.99
2019-03-15T01:29:28.071Z,99.99
2019-03-15T01:29:28.670Z,99.99
2019-03-15T01:29:29.271Z,99.99
2019-03-15T01:29:29.870Z,99.99
2019-03-15T01:29:30.470Z,99.99
2019-03-15T01:30:23.949Z,99.99
2019-03-15T01:30:24.525Z,99.73
2019-03-15T01:30:25.124Z,99.73
2019-03-15T01:30:25.724Z,99.35
2019-03-15T01:30:26.324Z,99.73
2019-03-15T01:30:26.922Z,99.64
2019-03-15T01:30:27.523Z,99.64
2019-03-15T01:30:28.122Z,99.64
2019-03-15T01:31:22.625Z,99.54
2019-03-15T01:31:23.201Z,99.54
2019-03-15T01:31:23.909Z,99.26
2019-03-15T01:31:24.411Z,99.64
2019-03-15T01:31:24.998Z,99.35
2019-03-15T01:31:25.598Z,99.35
2019-03-15T01:31:26.200Z,99.35
2019-03-15T01:31:26.797Z,99.35
2019-03-15T01:32:20.275Z,98.79
2019-03-15T01:32:20.851Z,98.97
2019-03-15T01:32:21.451Z,98.97
2019-03-15T01:32:22.049Z,98.97
2019-03-15T01:32:22.650Z,98.97
2019-03-15T01:32:23.252Z,99.16
2019-03-15T01:32:23.853Z,98.97
2019-03-15T01:32:24.450Z,99.07
2019-03-15T01:33:17.929Z,99.54
2019-03-15T01:33:18.504Z,99.16
2019-03-15T01:33:19.102Z,99.54
2019-03-15T01:33:19.703Z,99.44
2019-03-15T01:33:20.306Z,99.35
2019-03-15T01:33:20.903Z,99.35
2019-03-15T01:33:21.503Z,99.54
2019-03-15T01:33:22.102Z,99.64
2019-03-15T01:34:16.603Z,99.73
2019-03-15T01:34:17.178Z,99.73
2019-03-15T01:34:17.777Z,99.73
2019-03-15T01:34:18.377Z,99.64
2019-03-15T01:34:18.978Z,99.92
2019-03-15T01:34:19.584Z,99.73
2019-03-15T01:34:20.178Z,99.92
2019-03-15T01:34:20.777Z,99.54
2019-03-15T01:35:14.256Z,99.99
2019-03-15T01:35:14.834Z,99.99
2019-03-15T01:35:15.432Z,99.99
2019-03-15T01:35:16.031Z,99.99
2019-03-15T01:35:16.630Z,99.99
2019-03-15T01:35:17.229Z,99.99
2019-03-15T01:35:17.829Z,99.99
2019-03-15T01:35:18.429Z,99.99
2019-03-15T01:36:12.933Z,99.92
2019-03-15T01:36:13.505Z,99.99
2019-03-15T01:36:14.107Z,99.92
2019-03-15T01:36:14.705Z,99.92
2019-03-15T01:36:15.306Z,99.92
2019-03-15T01:36:15.905Z,99.99
2019-03-15T01:36:16.506Z,99.99
2019-03-15T01:36:17.105Z,99.83
2019-03-15T01:37:10.582Z,99.99
2019-03-15T01:37:11.159Z,99.99
2019-03-15T01:37:11.758Z,99.99
2019-03-15T01:37:12.357Z,99.99
2019-03-15T01:37:12.957Z,99.99
2019-03-15T01:37:13.557Z,99.99
2019-03-15T01:37:14.157Z,99.99
2019-03-15T01:37:14.901Z,99.99
2019-03-15T01:38:09.259Z,99.16
2019-03-15T01:38:09.834Z,99.07
2019-03-15T01:38:10.434Z,98.79
2019-03-15T01:38:11.035Z,98.97
2019-03-15T01:38:11.634Z,99.07
2019-03-15T01:38:12.234Z,99.07
2019-03-15T01:38:12.834Z,98.97
2019-03-15T01:38:13.435Z,99.07
2019-03-15T01:39:07.944Z,99.07
2019-03-15T01:39:08.506Z,99.16
2019-03-15T01:39:10.072Z,99.26
2019-03-15T01:39:10.159Z,99.16
2019-03-15T01:39:10.307Z,99.07
2019-03-15T01:39:10.913Z,99.16
2019-03-15T01:39:11.508Z,99.16
2019-03-15T01:39:12.105Z,99.16
2019-03-15T01:40:05.586Z,98.59
2019-03-15T01:40:06.161Z,98.59
2019-03-15T01:40:06.784Z,99.16
2019-03-15T01:40:07.360Z,99.07
2019-03-15T01:40:07.962Z,99.16
2019-03-15T01:40:08.560Z,99.07
2019-03-15T01:40:09.162Z,99.16
2019-03-15T01:40:09.788Z,99.16
2019-03-15T01:41:04.370Z,99.16
2019-03-15T01:41:04.836Z,99.07
2019-03-15T01:41:05.434Z,98.88
2019-03-15T01:41:06.035Z,98.97
2019-03-15T01:41:06.636Z,98.88
2019-03-15T01:41:07.235Z,98.88
2019-03-15T01:41:07.835Z,98.97
2019-03-15T01:41:08.434Z,98.88
2019-03-15T01:42:01.914Z,98.50
2019-03-15T01:42:02.487Z,98.50
2019-03-15T01:42:03.090Z,98.69
2019-03-15T01:42:03.690Z,98.40
2019-03-15T01:42:04.289Z,98.40
2019-03-15T01:42:04.888Z,98.12
2019-03-15T01:42:05.487Z,98.50
2019-03-15T01:42:06.087Z,98.50
2019-03-15T01:43:00.591Z,97.74
2019-03-15T01:43:01.163Z,98.50
2019-03-15T01:43:01.767Z,98.02
2019-03-15T01:43:02.368Z,98.40
2019-03-15T01:43:02.966Z,97.92
2019-03-15T01:43:03.562Z,98.02
2019-03-15T01:43:04.163Z,98.59
2019-03-15T01:43:04.834Z,98.12
2019-03-15T01:43:59.264Z,97.74
2019-03-15T01:43:59.838Z,97.74
2019-03-15T01:44:00.440Z,97.83
2019-03-15T01:44:01.038Z,97.55
2019-03-15T01:44:01.639Z,98.12
2019-03-15T01:44:02.238Z,97.83
2019-03-15T01:44:03.533Z,98.02
2019-03-15T01:44:03.629Z,97.74
2019-03-15T01:44:57.940Z,97.27
2019-03-15T01:44:58.514Z,97.17
2019-03-15T01:44:59.115Z,97.07
2019-03-15T01:44:59.715Z,97.27
2019-03-15T01:45:00.314Z,97.07
2019-03-15T01:45:00.917Z,97.07
2019-03-15T01:45:01.513Z,97.07
2019-03-15T01:45:02.116Z,97.07
2019-03-15T01:45:55.592Z,97.55
2019-03-15T01:45:56.165Z,97.55
2019-03-15T01:45:56.767Z,97.45
2019-03-15T01:45:57.370Z,97.45
2019-03-15T01:45:57.965Z,97.45
2019-03-15T01:45:58.566Z,97.27
2019-03-15T01:45:59.165Z,97.64
2019-03-15T01:45:59.766Z,97.92
2019-03-15T01:46:54.268Z,97.45
2019-03-15T01:46:54.842Z,98.02
2019-03-15T01:46:55.442Z,98.02
2019-03-15T01:46:56.042Z,97.74
2019-03-15T01:46:56.642Z,97.74
2019-03-15T01:46:57.241Z,98.02
2019-03-15T01:46:57.842Z,97.74
2019-03-15T01:46:59.310Z,97.74
2019-03-15T01:47:52.944Z,98.02
2019-03-15T01:47:53.517Z,98.02
2019-03-15T01:47:54.120Z,97.45
2019-03-15T01:47:54.717Z,97.74
2019-03-15T01:47:55.317Z,97.55
2019-03-15T01:47:55.916Z,97.83
2019-03-15T01:47:56.517Z,97.74
2019-03-15T01:47:57.117Z,97.83
2019-03-15T01:48:51.618Z,97.45
2019-03-15T01:48:52.194Z,98.02
2019-03-15T01:48:52.793Z,97.27
2019-03-15T01:48:53.393Z,97.92
2019-03-15T01:48:53.994Z,97.92
2019-03-15T01:48:54.610Z,97.55
2019-03-15T01:48:55.193Z,97.64
2019-03-15T01:48:55.793Z,97.55
2019-03-15T01:49:50.295Z,97.27
2019-03-15T01:49:50.876Z,97.17
2019-03-15T01:49:51.469Z,97.27
2019-03-15T01:49:52.070Z,97.36
2019-03-15T01:49:52.669Z,97.27
2019-03-15T01:49:53.276Z,97.45
2019-03-15T01:49:53.872Z,97.17
2019-03-15T01:49:54.469Z,97.45
2019-03-15T01:50:47.948Z,97.74
2019-03-15T01:50:48.521Z,97.74
2019-03-15T01:50:49.942Z,97.64
2019-03-15T01:50:50.336Z,97.17
2019-03-15T01:50:50.421Z,97.74
2019-03-15T01:50:50.923Z,97.74
2019-03-15T01:50:51.523Z,97.17
2019-03-15T01:50:52.120Z,97.17
2019-03-15T01:51:45.605Z,96.98
2019-03-15T01:51:46.173Z,96.79
2019-03-15T01:51:46.773Z,96.88
2019-03-15T01:51:47.372Z,96.98
2019-03-15T01:51:47.972Z,96.98
2019-03-15T01:51:48.572Z,96.88
2019-03-15T01:51:49.194Z,96.98
2019-03-15T01:51:49.928Z,96.98
2019-03-15T01:52:44.275Z,96.41
2019-03-15T01:52:44.847Z,96.69
2019-03-15T01:52:45.448Z,96.50
2019-03-15T01:52:46.048Z,96.41
2019-03-15T01:52:46.647Z,96.41
2019-03-15T01:52:47.252Z,96.50
2019-03-15T01:52:47.848Z,96.79
2019-03-15T01:52:48.451Z,96.50
2019-03-15T01:53:42.950Z,96.31
2019-03-15T01:53:43.524Z,96.31
2019-03-15T01:53:44.124Z,96.31
2019-03-15T01:53:44.722Z,96.22
2019-03-15T01:53:45.324Z,96.12
2019-03-15T01:53:45.924Z,96.22
2019-03-15T01:53:46.523Z,96.31
2019-03-15T01:53:47.132Z,96.31
2019-03-15T01:54:40.602Z,96.31
2019-03-15T01:54:41.183Z,96.69
2019-03-15T01:54:41.776Z,96.88
2019-03-15T01:54:42.376Z,96.79
2019-03-15T01:54:42.977Z,96.50
2019-03-15T01:54:43.575Z,96.60
2019-03-15T01:54:44.178Z,96.50
2019-03-15T01:54:44.885Z,96.79
2019-03-15T01:55:38.257Z,97.64
2019-03-15T01:55:38.827Z,97.36
2019-03-15T01:55:39.428Z,97.45
2019-03-15T01:55:40.027Z,97.55
2019-03-15T01:55:40.629Z,97.45
2019-03-15T01:55:41.227Z,97.55
2019-03-15T01:55:41.828Z,97.55
2019-03-15T01:55:42.427Z,97.74
2019-03-15T01:56:35.906Z,97.92
2019-03-15T01:56:36.483Z,98.88
2019-03-15T01:56:37.080Z,97.92
2019-03-15T01:56:37.679Z,97.92
2019-03-15T01:56:38.282Z,97.92
2019-03-15T01:56:38.879Z,98.12
2019-03-15T01:56:39.481Z,97.83
2019-03-15T01:56:40.078Z,98.97
2019-03-15T01:57:34.582Z,98.50
2019-03-15T01:57:35.156Z,98.21
2019-03-15T01:57:35.754Z,98.50
2019-03-15T01:57:36.355Z,98.59
2019-03-15T01:57:36.955Z,98.40
2019-03-15T01:57:37.555Z,98.59
2019-03-15T01:57:38.154Z,98.21
2019-03-15T01:57:38.755Z,98.50
2019-03-15T01:58:33.255Z,99.16
2019-03-15T01:58:33.830Z,99.07
2019-03-15T01:58:34.432Z,99.07
2019-03-15T01:58:35.031Z,99.16
2019-03-15T01:58:35.630Z,98.97
2019-03-15T01:58:36.232Z,99.07
2019-03-15T01:58:36.829Z,99.16
2019-03-15T01:58:37.433Z,99.16
2019-03-15T01:59:30.909Z,98.79
2019-03-15T01:59:31.482Z,98.79
2019-03-15T01:59:32.082Z,99.07
2019-03-15T01:59:32.683Z,99.16
2019-03-15T01:59:33.282Z,99.07
2019-03-15T01:59:33.882Z,98.79
2019-03-15T01:59:34.483Z,99.07
2019-03-15T01:59:35.086Z,99.07
2019-03-15T02:00:28.561Z,98.59
2019-03-15T02:00:29.135Z,99.16
2019-03-15T02:00:29.734Z,98.59
2019-03-15T02:00:30.344Z,98.69
2019-03-15T02:00:30.936Z,98.97
2019-03-15T02:00:31.535Z,99.44
2019-03-15T02:00:32.133Z,99.16
2019-03-15T02:00:32.736Z,98.69
2019-03-15T02:01:27.237Z,98.79
2019-03-15T02:01:27.811Z,98.97
2019-03-15T02:01:28.409Z,98.97
2019-03-15T02:01:29.009Z,98.79
2019-03-15T02:01:30.754Z,99.16
2019-03-15T02:01:30.758Z,99.07